Monk Fryston, United Kingdom
Current Conditions -  °F | °C
As of 12:50 AM on Thursday 18 Dec 2014 (Local Time) from EGNM Reporting Station
Light Rain Light Rain  
Wind Chill: 50°   Ceiling: 1000
Heat Index: 50°   Visibility: 5mi
Dew Point: 50°   Wind: 8mph
Humidity: 100%   Direction: 210°SSW
Pressure: 29.62"   Gusts: NA
Location:  53.76°N, 1.24°W
Report Text: EGNM 180050Z 21007KT 180V260 8000 -RADZ SCT005 BKN010 10/10 Q1003
Loading
Personal Weather Stations






























Interactive Weather Map New forecast layout! Learn more

10-Day Weather Forecast

Advertisements
Track Severe Weather on mobile